Kristin D — C6XA6 — position and weather

sailwx.info

Track history (hours):
 
Tides and Currents Weather Stations Pressure Air Temp Water Temp Dewpoint Dewpoint Depression Visibility Wind Speed Wind Dir Waves Ship Positions

Kristin D

Last reported at 2018-Apr-26 12:56 UTC. Time now 2018-Apr-26 13:23 UTC.
Position N 43°36' W 005°42'.

Length 90 m; draft 3.7 m.

Type: Cargo ship. MMSI: 311003700.

Date/timePositionNaut miles runAvg speedWind from/ knotsBaromVisibWave heightAir tempDewpointWater temp
2018-Apr-26 12:56N 43°36' W 005°42'0 0.0
2018-Apr-26 06:46N 43°36' W 005°42'0 0.0
2018-Apr-26 06:19N 43°36' W 005°42'0 0.0
2018-Apr-26 05:51N 43°36' W 005°42'0 0.0
2018-Apr-26 05:19N 43°36' W 005°42'0 0.0
2018-Apr-26 04:58N 43°36' W 005°42'0 0.0
2018-Apr-26 04:28N 43°36' W 005°42'0 0.0
2018-Apr-26 03:59N 43°36' W 005°42'0 0.0
2018-Apr-26 03:28N 43°36' W 005°42'0 0.0
2018-Apr-26 03:00N 43°36' W 005°42'0 0.0
2018-Apr-26 02:30N 43°36' W 005°42'0 0.0
2018-Apr-26 01:59N 43°36' W 005°42'0 0.0
2018-Apr-26 01:29N 43°36' W 005°42'0 0.0
2018-Apr-26 01:00N 43°36' W 005°42'0 0.0
2018-Apr-26 00:28N 43°36' W 005°42'0 0.0
2018-Apr-26 00:00N 43°36' W 005°42'75 8.4
2018-Apr-25 15:05N 43°48' W 007°25'112.2
2018-Apr-25 15:00N 43°48' W 007°26'612.3
2018-Apr-25 14:30N 43°49' W 007°34'612.0
2018-Apr-25 14:00N 43°49' W 007°43'612.0
2018-Apr-25 13:30N 43°48' W 007°51'166 7.8
2018-Apr-24 16:10N 41°09' W 008°54'  
2018-Apr-22 04:52N 43°43' W 006°07'2211.4
2018-Apr-22 02:57N 43°42' W 005°37'511.4
2018-Apr-22 02:30N 43°41' W 005°30'611.4
2018-Apr-22 02:00N 43°41' W 005°22'611.4
2018-Apr-22 01:30N 43°40' W 005°15'511.0
2018-Apr-22 01:00N 43°40' W 005°07'4311.5
2018-Apr-21 21:15N 43°36' W 004°07'311.3
2018-Apr-21 21:00N 43°36' W 004°04'611.3
2018-Apr-21 20:30N 43°35' W 003°56'611.3
2018-Apr-21 20:00N 43°35' W 003°48'611.6
2018-Apr-21 19:30N 43°34' W 003°40'611.7
2018-Apr-21 19:00N 43°33' W 003°32'612.0
2018-Apr-21 18:30N 43°33' W 003°24'612.6
2018-Apr-21 18:00N 43°32' W 003°15'612.4
2018-Apr-21 17:30N 43°31' W 003°07'612.1
2018-Apr-21 17:00N 43°31' W 002°58'612.3
2018-Apr-21 16:30N 43°30' W 002°50'612.0
2018-Apr-21 16:00N 43°29' W 002°42'612.5
2018-Apr-21 15:30N 43°27' W 002°34'612.4
2018-Apr-21 15:00N 43°26' W 002°25'612.4
2018-Apr-21 14:30N 43°24' W 002°17'612.3
2018-Apr-21 14:00N 43°23' W 002°09'612.3
2018-Apr-21 13:30N 43°21' W 002°01'5 9.4
2018-Apr-21 13:00N 43°19' W 001°55'2 0.2
2018-Apr-21 03:04N 43°21' W 001°56'1 5.4
2018-Apr-21 02:55N 43°21' W 001°57'19 7.2
2018-Apr-21 00:15N 43°38' W 002°09'4 8.6
2018-Apr-20 23:48N 43°42' W 002°11'2 8.3
2018-Apr-20 23:30N 43°44' W 002°13'4 8.6
2018-Apr-20 22:59N 43°48' W 002°16'5 9.0
2018-Apr-20 22:28N 43°52' W 002°19'6 9.4
2018-Apr-20 21:47N 43°58' W 002°23'146 9.3
2018-Apr-20 06:02N 46°07' W 003°59'0 9.3
2018-Apr-20 05:59N 46°08' W 003°59'5 9.5
2018-Apr-20 05:25N 46°13' W 004°02'12 9.2
2018-Apr-20 04:09N 46°23' W 004°10'210.1
2018-Apr-20 04:00N 46°24' W 004°11'510.3
2018-Apr-20 03:30N 46°29' W 004°15'510.3
2018-Apr-20 03:00N 46°33' W 004°18'510.1
2018-Apr-20 02:28N 46°38' W 004°22'510.1
2018-Apr-20 01:58N 46°43' W 004°25'5 9.7
2018-Apr-20 01:27N 46°47' W 004°28'4 9.8
2018-Apr-20 01:00N 46°51' W 004°32'5 9.7
2018-Apr-20 00:30N 46°55' W 004°35'5 9.7
2018-Apr-20 00:00N 46°59' W 004°38'6 9.7
2018-Apr-19 23:23N 47°05' W 004°43'22 9.9
2018-Apr-19 21:08N 47°25' W 004°58'110.6
2018-Apr-19 21:00N 47°26' W 004°59'510.7
2018-Apr-19 20:30N 47°31' W 005°02'1210.8
2018-Apr-19 19:23N 47°41' W 005°10'510.7
2018-Apr-19 18:57N 47°45' W 005°14'510.9
2018-Apr-19 18:30N 47°50' W 005°17'12 9.9
2018-Apr-19 17:20N 48°00' W 005°25'3 9.5
2018-Apr-19 16:59N 48°03' W 005°27'41 9.9
2018-Apr-19 12:49N 48°40' W 005°56'11010.0
2018-Apr-19 01:47N 49°42' W 003°36'712.1
2018-Apr-19 01:13N 49°45' W 003°27'311.9
2018-Apr-19 01:00N 49°46' W 003°24'611.6
2018-Apr-19 00:30N 49°49' W 003°16'511.0
2018-Apr-19 00:00N 49°52' W 003°09'510.2
2018-Apr-18 23:30N 49°54' W 003°02'10 9.1
2018-Apr-18 22:23N 49°59' W 002°47'3 8.1
2018-Apr-18 22:00N 49°60' W 002°43'4 7.7
2018-Apr-18 21:26N 50°01' W 002°36'3 7.4
2018-Apr-18 21:00N 50°02' W 002°32'12 7.7
2018-Apr-18 19:29N 50°06' W 002°14'5 8.9
2018-Apr-18 18:59N 50°07' W 002°07'5 9.9
2018-Apr-18 18:30N 50°08' W 002°01'611.1
2018-Apr-18 18:00N 50°10' W 001°52'612.4
2018-Apr-18 17:30N 50°12' W 001°43'713.5
2018-Apr-18 17:01N 50°14' W 001°33'714.1
2018-Apr-18 16:30N 50°16' W 001°22'714.5
2018-Apr-18 16:00N 50°18' W 001°12'815.0
2018-Apr-18 15:30N 50°20' W 001°00'714.6
2018-Apr-18 15:00N 50°22' W 000°49'813.7
2018-Apr-18 14:26N 50°24' W 000°38'913.0
2018-Apr-18 13:46N 50°27' W 000°25'512.0
2018-Apr-18 13:19N 50°29' W 000°17'411.3
2018-Apr-18 13:00N 50°30' W 000°11'510.7
2018-Apr-18 12:30N 50°31' W 000°03'5 9.9
2018-Apr-18 12:00N 50°32' E 000°04'5 9.3
2018-Apr-18 11:30N 50°34' E 000°11'4 8.9
2018-Apr-18 11:00N 50°35' E 000°18'4 8.5
2018-Apr-18 10:30N 50°36' E 000°24'4 8.6
2018-Apr-18 10:00N 50°38' E 000°31'5 9.1
2018-Apr-18 09:30N 50°40' E 000°37'510.1
2018-Apr-18 09:00N 50°43' E 000°44'611.2
2018-Apr-18 08:29N 50°46' E 000°51'612.0
2018-Apr-18 07:59N 50°50' E 000°59'712.8
2018-Apr-18 07:25N 50°54' E 001°08'612.9
2018-Apr-18 06:57N 50°58' E 001°16'612.9
2018-Apr-18 06:28N 51°02' E 001°23'612.4
2018-Apr-18 06:00N 51°06' E 001°30'611.9
2018-Apr-18 05:30N 51°09' E 001°37'510.8
2018-Apr-18 05:00N 51°13' E 001°44'510.2
2018-Apr-18 04:30N 51°17' E 001°48'5 9.4
2018-Apr-18 04:00N 51°21' E 001°52'4 9.0
2018-Apr-18 03:30N 51°25' E 001°55'5 9.0
2018-Apr-18 03:00N 51°29' E 001°60'5 9.3
2018-Apr-18 02:30N 51°33' E 002°04'5 9.4
2018-Apr-18 02:00N 51°36' E 002°09'5 9.5
2018-Apr-18 01:30N 51°40' E 002°14'510.2
2018-Apr-18 01:00N 51°44' E 002°20'610.9
2018-Apr-18 00:29N 51°48' E 002°26'13211.2
2018-Apr-17 12:41N 53°29' E 004°46'212.0
2018-Apr-17 12:29N 53°30' E 004°49'611.9
2018-Apr-17 12:00N 53°32' E 004°58'611.3
2018-Apr-17 11:29N 53°34' E 005°07'9610.7
2018-Apr-17 02:35N 53°53' E 007°46'113.0
2018-Apr-17 02:29N 53°53' E 007°48'611.7
2018-Apr-17 01:59N 53°52' E 007°57'613.0
2018-Apr-17 01:30N 53°49' E 008°07'612.9
2018-Apr-17 01:00N 53°44' E 008°14'611.6
2018-Apr-17 00:30N 53°41' E 008°22'510.2
2018-Apr-17 00:00N 53°37' E 008°28'5 9.9
2018-Apr-16 23:30N 53°33' E 008°33'4 8.1
2018-Apr-16 23:00N 53°30' E 008°30'5 9.2
2018-Apr-16 22:30N 53°25' E 008°30'5 9.3
2018-Apr-16 22:00N 53°20' E 008°30'5 9.4
2018-Apr-16 21:30N 53°16' E 008°29'510.7
2018-Apr-16 21:00N 53°11' E 008°33'510.7
2018-Apr-16 20:30N 53°08' E 008°40'2 2.9
2018-Apr-16 19:59N 53°07' E 008°43'0 0.6
2018-Apr-16 19:29N 53°07' E 008°43'0 0.0
2018-Apr-16 18:59N 53°07' E 008°43'0 0.0
2018-Apr-16 18:29N 53°07' E 008°43'0 0.0
2018-Apr-16 17:58N 53°07' E 008°43'0 0.0
2018-Apr-16 17:28N 53°07' E 008°43'0 0.0
2018-Apr-16 16:58N 53°07' E 008°43'0 0.0
2018-Apr-16 16:28N 53°07' E 008°43'0 0.0
2018-Apr-16 15:58N 53°07' E 008°43'0 0.0
2018-Apr-16 15:28N 53°07' E 008°43'0 0.0
2018-Apr-16 14:58N 53°07' E 008°43'0 0.0
2018-Apr-16 14:28N 53°07' E 008°43'0 0.0
2018-Apr-16 13:58N 53°07' E 008°43'0 0.0
2018-Apr-16 13:28N 53°07' E 008°43'0 0.0
2018-Apr-16 12:58N 53°07' E 008°43'  
Track history (hours):
 
Tides and Currents Weather Stations Pressure Air Temp Water Temp Dewpoint Dewpoint Depression Visibility Wind Speed Wind Dir Waves Ship Positions

Kristin D

Last reported at 2018-Apr-26 12:56 UTC. Time now 2018-Apr-26 13:23 UTC.
Position N 43°36' W 005°42'.

Length 90 m; draft 3.7 m.

Type: Cargo ship. MMSI: 311003700.

Date/timePositionNaut miles runAvg speedWind from/ knotsBaromVisibWave heightAir tempDewpointWater temp
2018-Apr-26 12:56N 43°36' W 005°42'0 0.0
2018-Apr-26 06:46N 43°36' W 005°42'0 0.0
2018-Apr-26 06:19N 43°36' W 005°42'0 0.0
2018-Apr-26 05:51N 43°36' W 005°42'0 0.0
2018-Apr-26 05:19N 43°36' W 005°42'0 0.0
2018-Apr-26 04:58N 43°36' W 005°42'0 0.0
2018-Apr-26 04:28N 43°36' W 005°42'0 0.0
2018-Apr-26 03:59N 43°36' W 005°42'0 0.0
2018-Apr-26 03:28N 43°36' W 005°42'0 0.0
2018-Apr-26 03:00N 43°36' W 005°42'0 0.0
2018-Apr-26 02:30N 43°36' W 005°42'0 0.0
2018-Apr-26 01:59N 43°36' W 005°42'0 0.0
2018-Apr-26 01:29N 43°36' W 005°42'0 0.0
2018-Apr-26 01:00N 43°36' W 005°42'0 0.0
2018-Apr-26 00:28N 43°36' W 005°42'0 0.0
2018-Apr-26 00:00N 43°36' W 005°42'75 8.4
2018-Apr-25 15:05N 43°48' W 007°25'112.2
2018-Apr-25 15:00N 43°48' W 007°26'612.3
2018-Apr-25 14:30N 43°49' W 007°34'612.0
2018-Apr-25 14:00N 43°49' W 007°43'612.0
2018-Apr-25 13:30N 43°48' W 007°51'166 7.8
2018-Apr-24 16:10N 41°09' W 008°54'  
2018-Apr-22 04:52N 43°43' W 006°07'2211.4
2018-Apr-22 02:57N 43°42' W 005°37'511.4
2018-Apr-22 02:30N 43°41' W 005°30'611.4
2018-Apr-22 02:00N 43°41' W 005°22'611.4
2018-Apr-22 01:30N 43°40' W 005°15'511.0
2018-Apr-22 01:00N 43°40' W 005°07'4311.5
2018-Apr-21 21:15N 43°36' W 004°07'311.3
2018-Apr-21 21:00N 43°36' W 004°04'611.3
2018-Apr-21 20:30N 43°35' W 003°56'611.3
2018-Apr-21 20:00N 43°35' W 003°48'611.6
2018-Apr-21 19:30N 43°34' W 003°40'611.7
2018-Apr-21 19:00N 43°33' W 003°32'612.0
2018-Apr-21 18:30N 43°33' W 003°24'612.6
2018-Apr-21 18:00N 43°32' W 003°15'612.4
2018-Apr-21 17:30N 43°31' W 003°07'612.1
2018-Apr-21 17:00N 43°31' W 002°58'612.3
2018-Apr-21 16:30N 43°30' W 002°50'612.0
2018-Apr-21 16:00N 43°29' W 002°42'612.5
2018-Apr-21 15:30N 43°27' W 002°34'612.4
2018-Apr-21 15:00N 43°26' W 002°25'612.4
2018-Apr-21 14:30N 43°24' W 002°17'612.3
2018-Apr-21 14:00N 43°23' W 002°09'612.3
2018-Apr-21 13:30N 43°21' W 002°01'5 9.4
2018-Apr-21 13:00N 43°19' W 001°55'2 0.2
2018-Apr-21 03:04N 43°21' W 001°56'1 5.4
2018-Apr-21 02:55N 43°21' W 001°57'19 7.2
2018-Apr-21 00:15N 43°38' W 002°09'4 8.6
2018-Apr-20 23:48N 43°42' W 002°11'2 8.3
2018-Apr-20 23:30N 43°44' W 002°13'4 8.6
2018-Apr-20 22:59N 43°48' W 002°16'5 9.0
2018-Apr-20 22:28N 43°52' W 002°19'6 9.4
2018-Apr-20 21:47N 43°58' W 002°23'146 9.3
2018-Apr-20 06:02N 46°07' W 003°59'0 9.3
2018-Apr-20 05:59N 46°08' W 003°59'5 9.5
2018-Apr-20 05:25N 46°13' W 004°02'12 9.2
2018-Apr-20 04:09N 46°23' W 004°10'210.1
2018-Apr-20 04:00N 46°24' W 004°11'510.3
2018-Apr-20 03:30N 46°29' W 004°15'510.3
2018-Apr-20 03:00N 46°33' W 004°18'510.1
2018-Apr-20 02:28N 46°38' W 004°22'510.1
2018-Apr-20 01:58N 46°43' W 004°25'5 9.7
2018-Apr-20 01:27N 46°47' W 004°28'4 9.8
2018-Apr-20 01:00N 46°51' W 004°32'5 9.7
2018-Apr-20 00:30N 46°55' W 004°35'5 9.7
2018-Apr-20 00:00N 46°59' W 004°38'6 9.7
2018-Apr-19 23:23N 47°05' W 004°43'22 9.9
2018-Apr-19 21:08N 47°25' W 004°58'110.6
2018-Apr-19 21:00N 47°26' W 004°59'510.7
2018-Apr-19 20:30N 47°31' W 005°02'1210.8
2018-Apr-19 19:23N 47°41' W 005°10'510.7
2018-Apr-19 18:57N 47°45' W 005°14'510.9
2018-Apr-19 18:30N 47°50' W 005°17'12 9.9
2018-Apr-19 17:20N 48°00' W 005°25'3 9.5
2018-Apr-19 16:59N 48°03' W 005°27'41 9.9
2018-Apr-19 12:49N 48°40' W 005°56'11010.0
2018-Apr-19 01:47N 49°42' W 003°36'712.1
2018-Apr-19 01:13N 49°45' W 003°27'311.9
2018-Apr-19 01:00N 49°46' W 003°24'611.6
2018-Apr-19 00:30N 49°49' W 003°16'511.0
2018-Apr-19 00:00N 49°52' W 003°09'510.2
2018-Apr-18 23:30N 49°54' W 003°02'10 9.1
2018-Apr-18 22:23N 49°59' W 002°47'3 8.1
2018-Apr-18 22:00N 49°60' W 002°43'4 7.7
2018-Apr-18 21:26N 50°01' W 002°36'3 7.4
2018-Apr-18 21:00N 50°02' W 002°32'12 7.7
2018-Apr-18 19:29N 50°06' W 002°14'5 8.9
2018-Apr-18 18:59N 50°07' W 002°07'5 9.9
2018-Apr-18 18:30N 50°08' W 002°01'611.1
2018-Apr-18 18:00N 50°10' W 001°52'612.4
2018-Apr-18 17:30N 50°12' W 001°43'713.5
2018-Apr-18 17:01N 50°14' W 001°33'714.1
2018-Apr-18 16:30N 50°16' W 001°22'714.5
2018-Apr-18 16:00N 50°18' W 001°12'815.0
2018-Apr-18 15:30N 50°20' W 001°00'714.6
2018-Apr-18 15:00N 50°22' W 000°49'813.7
2018-Apr-18 14:26N 50°24' W 000°38'913.0
2018-Apr-18 13:46N 50°27' W 000°25'512.0
2018-Apr-18 13:19N 50°29' W 000°17'411.3
2018-Apr-18 13:00N 50°30' W 000°11'510.7
2018-Apr-18 12:30N 50°31' W 000°03'5 9.9
2018-Apr-18 12:00N 50°32' E 000°04'5 9.3
2018-Apr-18 11:30N 50°34' E 000°11'4 8.9
2018-Apr-18 11:00N 50°35' E 000°18'4 8.5
2018-Apr-18 10:30N 50°36' E 000°24'4 8.6
2018-Apr-18 10:00N 50°38' E 000°31'5 9.1
2018-Apr-18 09:30N 50°40' E 000°37'510.1
2018-Apr-18 09:00N 50°43' E 000°44'611.2
2018-Apr-18 08:29N 50°46' E 000°51'612.0
2018-Apr-18 07:59N 50°50' E 000°59'712.8
2018-Apr-18 07:25N 50°54' E 001°08'612.9
2018-Apr-18 06:57N 50°58' E 001°16'612.9
2018-Apr-18 06:28N 51°02' E 001°23'612.4
2018-Apr-18 06:00N 51°06' E 001°30'611.9
2018-Apr-18 05:30N 51°09' E 001°37'510.8
2018-Apr-18 05:00N 51°13' E 001°44'510.2
2018-Apr-18 04:30N 51°17' E 001°48'5 9.4
2018-Apr-18 04:00N 51°21' E 001°52'4 9.0
2018-Apr-18 03:30N 51°25' E 001°55'5 9.0
2018-Apr-18 03:00N 51°29' E 001°60'5 9.3
2018-Apr-18 02:30N 51°33' E 002°04'5 9.4
2018-Apr-18 02:00N 51°36' E 002°09'5 9.5
2018-Apr-18 01:30N 51°40' E 002°14'510.2
2018-Apr-18 01:00N 51°44' E 002°20'610.9
2018-Apr-18 00:29N 51°48' E 002°26'13211.2
2018-Apr-17 12:41N 53°29' E 004°46'212.0
2018-Apr-17 12:29N 53°30' E 004°49'611.9
2018-Apr-17 12:00N 53°32' E 004°58'611.3
2018-Apr-17 11:29N 53°34' E 005°07'9610.7
2018-Apr-17 02:35N 53°53' E 007°46'113.0
2018-Apr-17 02:29N 53°53' E 007°48'611.7
2018-Apr-17 01:59N 53°52' E 007°57'613.0
2018-Apr-17 01:30N 53°49' E 008°07'612.9
2018-Apr-17 01:00N 53°44' E 008°14'611.6
2018-Apr-17 00:30N 53°41' E 008°22'510.2
2018-Apr-17 00:00N 53°37' E 008°28'5 9.9
2018-Apr-16 23:30N 53°33' E 008°33'4 8.1
2018-Apr-16 23:00N 53°30' E 008°30'5 9.2
2018-Apr-16 22:30N 53°25' E 008°30'5 9.3
2018-Apr-16 22:00N 53°20' E 008°30'5 9.4
2018-Apr-16 21:30N 53°16' E 008°29'510.7
2018-Apr-16 21:00N 53°11' E 008°33'510.7
2018-Apr-16 20:30N 53°08' E 008°40'2 2.9
2018-Apr-16 19:59N 53°07' E 008°43'0 0.6
2018-Apr-16 19:29N 53°07' E 008°43'0 0.0
2018-Apr-16 18:59N 53°07' E 008°43'0 0.0
2018-Apr-16 18:29N 53°07' E 008°43'0 0.0
2018-Apr-16 17:58N 53°07' E 008°43'0 0.0
2018-Apr-16 17:28N 53°07' E 008°43'0 0.0
2018-Apr-16 16:58N 53°07' E 008°43'0 0.0
2018-Apr-16 16:28N 53°07' E 008°43'0 0.0
2018-Apr-16 15:58N 53°07' E 008°43'0 0.0
2018-Apr-16 15:28N 53°07' E 008°43'0 0.0
2018-Apr-16 14:58N 53°07' E 008°43'0 0.0
2018-Apr-16 14:28N 53°07' E 008°43'0 0.0
2018-Apr-16 13:58N 53°07' E 008°43'0 0.0
2018-Apr-16 13:28N 53°07' E 008°43'0 0.0
2018-Apr-16 12:58N 53°07' E 008°43'  

Dump ship's entire track history